sensor_id;sensor_type;location;lat;lon;timestamp;temperature;humidity
14317;DHT22;7242;50.858;6.586;2023-07-20T00:05:34;18.60;99.90
14317;DHT22;7242;50.858;6.586;2023-07-20T00:11:37;20.90;99.90
14317;DHT22;7242;50.858;6.586;2023-07-20T00:14:40;18.20;99.90
14317;DHT22;7242;50.858;6.586;2023-07-20T00:20:42;18.70;99.90
14317;DHT22;7242;50.858;6.586;2023-07-20T00:23:43;18.50;99.90
14317;DHT22;7242;50.858;6.586;2023-07-20T00:29:45;18.80;99.90
14317;DHT22;7242;50.858;6.586;2023-07-20T00:35:47;18.30;99.90
14317;DHT22;7242;50.858;6.586;2023-07-20T00:38:50;18.30;99.90
14317;DHT22;7242;50.858;6.586;2023-07-20T00:41:51;18.90;99.90
14317;DHT22;7242;50.858;6.586;2023-07-20T01:00:01;18.40;99.90
14317;DHT22;7242;50.858;6.586;2023-07-20T01:06:24;18.00;99.90
14317;DHT22;7242;50.858;6.586;2023-07-20T01:09:51;17.80;99.90
14317;DHT22;7242;50.858;6.586;2023-07-20T01:19:00;18.00;99.90
14317;DHT22;7242;50.858;6.586;2023-07-20T01:32:04;17.50;99.90
14317;DHT22;7242;50.858;6.586;2023-07-20T01:35:08;17.60;99.90
14317;DHT22;7242;50.858;6.586;2023-07-20T01:38:12;17.60;99.90
14317;DHT22;7242;50.858;6.586;2023-07-20T01:41:14;17.60;99.90
14317;DHT22;7242;50.858;6.586;2023-07-20T01:47:16;17.00;99.90
14317;DHT22;7242;50.858;6.586;2023-07-20T01:56:22;17.20;99.90
14317;DHT22;7242;50.858;6.586;2023-07-20T01:59:23;17.50;99.90
14317;DHT22;7242;50.858;6.586;2023-07-20T02:05:27;17.30;99.90
14317;DHT22;7242;50.858;6.586;2023-07-20T02:11:31;17.50;99.90
14317;DHT22;7242;50.858;6.586;2023-07-20T02:14:32;17.20;99.90
14317;DHT22;7242;50.858;6.586;2023-07-20T02:20:34;17.00;99.90
14317;DHT22;7242;50.858;6.586;2023-07-20T02:26:36;17.20;99.90
14317;DHT22;7242;50.858;6.586;2023-07-20T02:32:38;17.10;99.90
14317;DHT22;7242;50.858;6.586;2023-07-20T02:35:40;17.00;99.90
14317;DHT22;7242;50.858;6.586;2023-07-20T02:38:42;17.10;99.90
14317;DHT22;7242;50.858;6.586;2023-07-20T02:50:46;17.40;99.90
14317;DHT22;7242;50.858;6.586;2023-07-20T02:56:48;16.80;99.90
14317;DHT22;7242;50.858;6.586;2023-07-20T02:59:49;16.70;99.90
14317;DHT22;7242;50.858;6.586;2023-07-20T03:02:51;17.00;99.90
14317;DHT22;7242;50.858;6.586;2023-07-20T03:12:00;17.50;99.90
14317;DHT22;7242;50.858;6.586;2023-07-20T03:15:02;17.20;99.90
14317;DHT22;7242;50.858;6.586;2023-07-20T03:18:03;17.30;99.90
14317;DHT22;7242;50.858;6.586;2023-07-20T03:21:06;17.20;99.90
14317;DHT22;7242;50.858;6.586;2023-07-20T03:24:08;17.30;99.90
14317;DHT22;7242;50.858;6.586;2023-07-20T03:27:09;17.10;99.90
14317;DHT22;7242;50.858;6.586;2023-07-20T03:30:10;17.70;99.90
14317;DHT22;7242;50.858;6.586;2023-07-20T03:36:13;17.20;99.90
14317;DHT22;7242;50.858;6.586;2023-07-20T03:45:16;17.30;99.90
14317;DHT22;7242;50.858;6.586;2023-07-20T03:51:22;17.10;99.90
14317;DHT22;7242;50.858;6.586;2023-07-20T03:57:24;17.30;99.90
14317;DHT22;7242;50.858;6.586;2023-07-20T04:00:24;16.90;99.90
14317;DHT22;7242;50.858;6.586;2023-07-20T04:09:28;17.00;99.90
14317;DHT22;7242;50.858;6.586;2023-07-20T04:12:29;17.30;99.90
14317;DHT22;7242;50.858;6.586;2023-07-20T04:18:30;17.50;99.90
14317;DHT22;7242;50.858;6.586;2023-07-20T04:24:32;17.80;99.90
14317;DHT22;7242;50.858;6.586;2023-07-20T04:27:33;17.50;99.90
14317;DHT22;7242;50.858;6.586;2023-07-20T04:30:35;17.40;99.90
14317;DHT22;7242;50.858;6.586;2023-07-20T04:33:36;17.50;99.90
14317;DHT22;7242;50.858;6.586;2023-07-20T04:36:37;17.40;99.90
14317;DHT22;7242;50.858;6.586;2023-07-20T04:39:39;17.70;99.90
14317;DHT22;7242;50.858;6.586;2023-07-20T04:45:45;17.60;99.90
14317;DHT22;7242;50.858;6.586;2023-07-20T04:51:49;17.60;99.90
14317;DHT22;7242;50.858;6.586;2023-07-20T04:57:51;17.90;99.90
14317;DHT22;7242;50.858;6.586;2023-07-20T05:12:59;18.00;99.90
14317;DHT22;7242;50.858;6.586;2023-07-20T05:25:06;18.10;99.90
14317;DHT22;7242;50.858;6.586;2023-07-20T05:28:06;17.80;99.90
14317;DHT22;7242;50.858;6.586;2023-07-20T05:46:14;18.50;99.90
14317;DHT22;7242;50.858;6.586;2023-07-20T06:01:19;19.30;99.90
14317;DHT22;7242;50.858;6.586;2023-07-20T06:22:27;20.50;99.90
14317;DHT22;7242;50.858;6.586;2023-07-20T06:31:30;20.50;99.90
14317;DHT22;7242;50.858;6.586;2023-07-20T06:37:37;20.70;99.90
14317;DHT22;7242;50.858;6.586;2023-07-20T06:43:38;20.70;99.90
14317;DHT22;7242;50.858;6.586;2023-07-20T06:46:39;20.70;99.90
14317;DHT22;7242;50.858;6.586;2023-07-20T06:55:42;21.30;99.90
14317;DHT22;7242;50.858;6.586;2023-07-20T06:58:43;21.00;99.90
14317;DHT22;7242;50.858;6.586;2023-07-20T07:04:45;21.60;99.90
14317;DHT22;7242;50.858;6.586;2023-07-20T07:10:50;21.80;99.90
14317;DHT22;7242;50.858;6.586;2023-07-20T07:16:52;22.10;99.90
14317;DHT22;7242;50.858;6.586;2023-07-20T07:32:00;26.20;99.90
14317;DHT22;7242;50.858;6.586;2023-07-20T07:35:02;26.90;99.90
14317;DHT22;7242;50.858;6.586;2023-07-20T07:38:02;27.50;99.90
14317;DHT22;7242;50.858;6.586;2023-07-20T07:44:04;27.80;99.90
14317;DHT22;7242;50.858;6.586;2023-07-20T07:47:06;28.80;99.90
14317;DHT22;7242;50.858;6.586;2023-07-20T07:59:11;34.00;99.90
14317;DHT22;7242;50.858;6.586;2023-07-20T08:05:13;32.60;99.90
14317;DHT22;7242;50.858;6.586;2023-07-20T08:11:15;30.10;99.90
14317;DHT22;7242;50.858;6.586;2023-07-20T08:17:17;30.30;99.90
14317;DHT22;7242;50.858;6.586;2023-07-20T08:23:19;32.40;99.90
14317;DHT22;7242;50.858;6.586;2023-07-20T08:29:23;32.60;98.10
14317;DHT22;7242;50.858;6.586;2023-07-20T08:35:26;30.10;99.90
14317;DHT22;7242;50.858;6.586;2023-07-20T08:41:28;28.80;99.90
14317;DHT22;7242;50.858;6.586;2023-07-20T08:47:30;27.90;99.90
14317;DHT22;7242;50.858;6.586;2023-07-20T08:53:32;27.10;99.90
14317;DHT22;7242;50.858;6.586;2023-07-20T08:56:34;27.20;99.90
14317;DHT22;7242;50.858;6.586;2023-07-20T08:59:36;26.90;99.90
14317;DHT22;7242;50.858;6.586;2023-07-20T09:14:48;25.90;99.90
14317;DHT22;7242;50.858;6.586;2023-07-20T09:26:57;26.60;99.90
14317;DHT22;7242;50.858;6.586;2023-07-20T09:36:03;26.40;99.90
14317;DHT22;7242;50.858;6.586;2023-07-20T09:42:05;26.80;99.90
14317;DHT22;7242;50.858;6.586;2023-07-20T09:45:07;26.60;99.90
14317;DHT22;7242;50.858;6.586;2023-07-20T09:48:09;26.80;99.90
14317;DHT22;7242;50.858;6.586;2023-07-20T09:54:13;27.00;99.90
14317;DHT22;7242;50.858;6.586;2023-07-20T10:00:16;26.40;99.90
14317;DHT22;7242;50.858;6.586;2023-07-20T10:06:24;26.20;99.90
14317;DHT22;7242;50.858;6.586;2023-07-20T10:21:47;26.10;99.90
14317;DHT22;7242;50.858;6.586;2023-07-20T10:24:48;26.10;99.90
14317;DHT22;7242;50.858;6.586;2023-07-20T10:27:50;26.10;99.90
14317;DHT22;7242;50.858;6.586;2023-07-20T10:33:52;26.10;99.90
14317;DHT22;7242;50.858;6.586;2023-07-20T10:36:53;26.30;99.90
14317;DHT22;7242;50.858;6.586;2023-07-20T10:45:59;25.90;99.90
14317;DHT22;7242;50.858;6.586;2023-07-20T10:49:02;26.00;99.90
14317;DHT22;7242;50.858;6.586;2023-07-20T11:01:17;25.70;99.90
14317;DHT22;7242;50.858;6.586;2023-07-20T11:10:40;25.90;99.90
14317;DHT22;7242;50.858;6.586;2023-07-20T11:13:57;25.50;99.90
14317;DHT22;7242;50.858;6.586;2023-07-20T11:20:11;25.50;99.90
14317;DHT22;7242;50.858;6.586;2023-07-20T11:26:14;25.70;99.90
14317;DHT22;7242;50.858;6.586;2023-07-20T11:29:17;25.70;99.90
14317;DHT22;7242;50.858;6.586;2023-07-20T11:35:23;25.20;99.90
14317;DHT22;7242;50.858;6.586;2023-07-20T11:38:24;25.40;99.90
14317;DHT22;7242;50.858;6.586;2023-07-20T11:47:30;24.80;99.90
14317;DHT22;7242;50.858;6.586;2023-07-20T11:50:31;25.10;99.90
14317;DHT22;7242;50.858;6.586;2023-07-20T11:53:32;24.70;99.90
14317;DHT22;7242;50.858;6.586;2023-07-20T11:59:37;25.30;99.90
14317;DHT22;7242;50.858;6.586;2023-07-20T12:02:38;25.50;99.90
14317;DHT22;7242;50.858;6.586;2023-07-20T12:05:40;25.60;99.90
14317;DHT22;7242;50.858;6.586;2023-07-20T12:11:45;25.90;99.90
14317;DHT22;7242;50.858;6.586;2023-07-20T12:14:46;25.90;99.90
14317;DHT22;7242;50.858;6.586;2023-07-20T12:24:00;25.90;99.90
14317;DHT22;7242;50.858;6.586;2023-07-20T12:36:06;25.50;99.90
14317;DHT22;7242;50.858;6.586;2023-07-20T12:42:08;25.90;99.90
14317;DHT22;7242;50.858;6.586;2023-07-20T12:51:12;25.70;99.90
14317;DHT22;7242;50.858;6.586;2023-07-20T12:54:13;25.60;99.90
14317;DHT22;7242;50.858;6.586;2023-07-20T13:12:23;25.20;99.90
14317;DHT22;7242;50.858;6.586;2023-07-20T13:15:29;25.20;99.90
14317;DHT22;7242;50.858;6.586;2023-07-20T13:18:31;25.40;99.90
14317;DHT22;7242;50.858;6.586;2023-07-20T13:24:33;25.70;99.90
14317;DHT22;7242;50.858;6.586;2023-07-20T13:30:35;25.70;99.90
14317;DHT22;7242;50.858;6.586;2023-07-20T13:33:36;25.90;99.90
14317;DHT22;7242;50.858;6.586;2023-07-20T13:42:39;26.10;99.90
14317;DHT22;7242;50.858;6.586;2023-07-20T13:54:44;26.10;99.90
14317;DHT22;7242;50.858;6.586;2023-07-20T14:00:46;25.90;99.90
14317;DHT22;7242;50.858;6.586;2023-07-20T14:09:49;26.20;99.90
14317;DHT22;7242;50.858;6.586;2023-07-20T14:18:52;26.10;99.90
14317;DHT22;7242;50.858;6.586;2023-07-20T14:21:53;26.00;99.90
14317;DHT22;7242;50.858;6.586;2023-07-20T14:27:55;25.80;99.90
14317;DHT22;7242;50.858;6.586;2023-07-20T14:30:55;25.70;99.90
14317;DHT22;7242;50.858;6.586;2023-07-20T14:43:01;25.60;99.60
14317;DHT22;7242;50.858;6.586;2023-07-20T14:46:01;25.60;99.60
14317;DHT22;7242;50.858;6.586;2023-07-20T14:58:06;25.60;99.50
14317;DHT22;7242;50.858;6.586;2023-07-20T15:01:06;25.70;98.90
14317;DHT22;7242;50.858;6.586;2023-07-20T15:07:08;25.70;98.70
14317;DHT22;7242;50.858;6.586;2023-07-20T15:13:10;25.90;98.20
14317;DHT22;7242;50.858;6.586;2023-07-20T15:25:15;26.00;96.60
14317;DHT22;7242;50.858;6.586;2023-07-20T15:37:19;26.20;96.90
14317;DHT22;7242;50.858;6.586;2023-07-20T15:43:21;26.10;98.90
14317;DHT22;7242;50.858;6.586;2023-07-20T15:52:46;25.90;98.60
14317;DHT22;7242;50.858;6.586;2023-07-20T15:58:55;25.70;99.20
14317;DHT22;7242;50.858;6.586;2023-07-20T16:01:55;25.50;99.20
14317;DHT22;7242;50.858;6.586;2023-07-20T16:04:56;25.30;99.40
14317;DHT22;7242;50.858;6.586;2023-07-20T16:10:58;25.30;98.10
14317;DHT22;7242;50.858;6.586;2023-07-20T16:14:00;25.00;98.60
14317;DHT22;7242;50.858;6.586;2023-07-20T16:23:04;25.30;99.20
14317;DHT22;7242;50.858;6.586;2023-07-20T16:26:06;25.30;99.20
14317;DHT22;7242;50.858;6.586;2023-07-20T16:29:06;25.40;98.90
14317;DHT22;7242;50.858;6.586;2023-07-20T16:35:08;25.10;99.20
14317;DHT22;7242;50.858;6.586;2023-07-20T16:44:15;25.00;99.90
14317;DHT22;7242;50.858;6.586;2023-07-20T16:50:16;25.00;99.90
14317;DHT22;7242;50.858;6.586;2023-07-20T16:53:17;24.90;99.90
14317;DHT22;7242;50.858;6.586;2023-07-20T16:59:19;24.80;99.90
14317;DHT22;7242;50.858;6.586;2023-07-20T17:05:20;24.70;99.90
14317;DHT22;7242;50.858;6.586;2023-07-20T17:08:21;25.00;99.90
14317;DHT22;7242;50.858;6.586;2023-07-20T17:11:22;24.50;99.90
14317;DHT22;7242;50.858;6.586;2023-07-20T17:14:23;24.30;99.90
14317;DHT22;7242;50.858;6.586;2023-07-20T17:32:32;23.80;99.90
14317;DHT22;7242;50.858;6.586;2023-07-20T17:38:34;24.00;99.90
14317;DHT22;7242;50.858;6.586;2023-07-20T17:50:38;24.00;99.90
14317;DHT22;7242;50.858;6.586;2023-07-20T18:08:45;24.00;99.90
14317;DHT22;7242;50.858;6.586;2023-07-20T18:11:45;23.70;99.90
14317;DHT22;7242;50.858;6.586;2023-07-20T18:26:51;23.50;99.90
14317;DHT22;7242;50.858;6.586;2023-07-20T18:35:55;23.30;99.90
14317;DHT22;7242;50.858;6.586;2023-07-20T19:06:08;22.90;99.90
14317;DHT22;7242;50.858;6.586;2023-07-20T19:21:17;22.70;99.90
14317;DHT22;7242;50.858;6.586;2023-07-20T19:33:21;22.60;99.90
14317;DHT22;7242;50.858;6.586;2023-07-20T19:36:21;22.50;99.90
14317;DHT22;7242;50.858;6.586;2023-07-20T19:42:23;22.50;99.90
14317;DHT22;7242;50.858;6.586;2023-07-20T19:54:27;22.60;99.90
14317;DHT22;7242;50.858;6.586;2023-07-20T19:57:28;22.30;99.90
14317;DHT22;7242;50.858;6.586;2023-07-20T20:18:40;20.50;99.90
14317;DHT22;7242;50.858;6.586;2023-07-20T20:30:49;18.90;99.90
14317;DHT22;7242;50.858;6.586;2023-07-20T20:39:52;18.90;99.90
14317;DHT22;7242;50.858;6.586;2023-07-20T20:42:53;18.80;99.90
14317;DHT22;7242;50.858;6.586;2023-07-20T20:48:55;18.90;99.90
14317;DHT22;7242;50.858;6.586;2023-07-20T20:51:56;18.70;99.90
14317;DHT22;7242;50.858;6.586;2023-07-20T20:57:58;18.60;99.90
14317;DHT22;7242;50.858;6.586;2023-07-20T21:04:01;18.80;99.90
14317;DHT22;7242;50.858;6.586;2023-07-20T21:07:02;18.80;99.90
14317;DHT22;7242;50.858;6.586;2023-07-20T21:19:06;18.60;99.90
14317;DHT22;7242;50.858;6.586;2023-07-20T21:22:09;18.60;99.90
14317;DHT22;7242;50.858;6.586;2023-07-20T21:28:10;18.50;99.90
14317;DHT22;7242;50.858;6.586;2023-07-20T21:34:15;18.70;99.90
14317;DHT22;7242;50.858;6.586;2023-07-20T21:40:17;18.70;99.90
14317;DHT22;7242;50.858;6.586;2023-07-20T21:52:21;18.50;99.90
14317;DHT22;7242;50.858;6.586;2023-07-20T21:55:21;18.90;99.90
14317;DHT22;7242;50.858;6.586;2023-07-20T21:58:23;18.80;99.90
14317;DHT22;7242;50.858;6.586;2023-07-20T22:01:23;18.90;99.90
14317;DHT22;7242;50.858;6.586;2023-07-20T22:13:28;18.90;99.90
14317;DHT22;7242;50.858;6.586;2023-07-20T22:19:32;18.80;99.90
14317;DHT22;7242;50.858;6.586;2023-07-20T22:22:32;19.00;99.90
14317;DHT22;7242;50.858;6.586;2023-07-20T22:25:34;18.90;99.90
14317;DHT22;7242;50.858;6.586;2023-07-20T22:31:36;18.60;99.90
14317;DHT22;7242;50.858;6.586;2023-07-20T22:34:36;18.90;99.90
14317;DHT22;7242;50.858;6.586;2023-07-20T22:40:38;18.50;99.90
14317;DHT22;7242;50.858;6.586;2023-07-20T22:43:39;18.60;99.90
14317;DHT22;7242;50.858;6.586;2023-07-20T22:49:41;18.60;99.90
14317;DHT22;7242;50.858;6.586;2023-07-20T22:52:44;18.50;99.90
14317;DHT22;7242;50.858;6.586;2023-07-20T22:55:46;18.50;99.90
14317;DHT22;7242;50.858;6.586;2023-07-20T23:01:48;18.30;99.90
14317;DHT22;7242;50.858;6.586;2023-07-20T23:10:55;18.00;99.90
14317;DHT22;7242;50.858;6.586;2023-07-20T23:16:57;18.00;99.90
14317;DHT22;7242;50.858;6.586;2023-07-20T23:19:59;17.90;99.90
14317;DHT22;7242;50.858;6.586;2023-07-20T23:26:01;17.90;99.90
14317;DHT22;7242;50.858;6.586;2023-07-20T23:29:03;18.10;99.90
14317;DHT22;7242;50.858;6.586;2023-07-20T23:35:07;17.50;99.90
14317;DHT22;7242;50.858;6.586;2023-07-20T23:38:08;17.20;99.90
14317;DHT22;7242;50.858;6.586;2023-07-20T23:44:09;17.30;99.90
14317;DHT22;7242;50.858;6.586;2023-07-20T23:47:10;17.40;99.90
14317;DHT22;7242;50.858;6.586;2023-07-20T23:50:14;17.30;99.90
14317;DHT22;7242;50.858;6.586;2023-07-20T23:56:18;17.50;99.90
